Time;durP1;ratioP1;P1;durP2;ratioP2;P2;SDS_P1;SDS_P2;PMS_P1;PMS_P2;Temp;Humidity;BMP_temperature;BMP_pressure;BME280_temperature;BME280_humidity;BME280_pressure;Samples;Min_cycle;Max_cycle;Signal;HPM_P1;HPM_P2
2023/08/08 00:01:42;;;;;;;;;;;;;;;18.82;57.06;101540.50;4148948;28;20024;-57
2023/08/08 00:03:44;;;;;;;;;;;;;;;18.82;56.63;101544.97;4148526;28;19972;-57
2023/08/08 00:05:46;;;;;;;;;;;;;;;18.82;57.04;101543.19;4149011;28;19980;-57
2023/08/08 00:07:47;;;;;;;;;;;;;;;18.82;57.08;101544.97;4148825;28;19933;-57
2023/08/08 00:09:49;;;;;;;;;;;;;;;18.81;57.17;101541.44;4148390;28;19929;-57
2023/08/08 00:11:50;;;;;;;;;;;;;;;18.81;57.07;101544.13;4148708;28;20363;-57
2023/08/08 00:13:52;;;;;;;;;;;;;;;18.81;56.83;101544.13;4148852;28;19933;-57
2023/08/08 00:15:53;;;;;;;;;;;;;;;18.81;56.96;101544.13;4148797;28;19929;-57
2023/08/08 00:17:55;;;;;;;;;;;;;;;18.81;56.99;101543.25;4148535;28;20425;-57
2023/08/08 00:19:57;;;;;;;;;;;;;;;18.80;57.01;101530.88;4148302;28;20255;-57
2023/08/08 00:21:58;;;;;;;;;;;;;;;18.79;56.92;101538.00;4148829;28;19948;-55
2023/08/08 00:24:00;;;;;;;;;;;;;;;18.79;57.07;101532.69;4148671;28;19925;-57
2023/08/08 00:26:01;;;;;;;;;;;;;;;18.79;57.14;101534.50;4148552;28;19926;-55
2023/08/08 00:28:03;;;;;;;;;;;;;;;18.78;57.08;101533.63;4148592;28;19925;-59
2023/08/08 00:30:05;;;;;;;;;;;;;;;18.79;56.85;101537.16;4148075;28;19925;-59
2023/08/08 00:32:06;;;;;;;;;;;;;;;18.77;57.01;101534.59;4147211;28;20016;-59
2023/08/08 00:34:08;;;;;;;;;;;;;;;18.77;57.03;101534.59;4148529;28;20306;-56
2023/08/08 00:36:09;;;;;;;;;;;;;;;18.77;56.74;101537.25;4148396;28;19976;-57
2023/08/08 00:38:11;;;;;;;;;;;;;;;18.76;56.88;101535.53;4148782;28;19932;-57
2023/08/08 00:40:13;;;;;;;;;;;;;;;18.76;56.95;101530.22;4147898;28;20419;-57
2023/08/08 00:42:14;;;;;;;;;;;;;;;18.76;56.77;101524.88;4148531;28;19925;-57
2023/08/08 00:44:16;;;;;;;;;;;;;;;18.76;56.58;101524.00;4148240;28;19964;-57
2023/08/08 00:46:20;;;;;;;;;;;;;;;18.75;56.95;101522.28;4148329;28;20413;-57
2023/08/08 00:48:24;;;;;;;;;;;;;;;18.75;56.99;101519.63;4148377;28;19932;-56
2023/08/08 00:50:25;;;;;;;;;;;;;;;18.75;56.89;101519.63;4147550;28;19925;-57
2023/08/08 00:52:27;;;;;;;;;;;;;;;18.74;56.97;101510.78;4148335;28;19972;-56
2023/08/08 00:54:29;;;;;;;;;;;;;;;18.74;56.98;101509.94;4148370;28;20004;-57
2023/08/08 00:56:31;;;;;;;;;;;;;;;18.73;56.84;101509.06;4148123;28;19932;-56
2023/08/08 00:58:33;;;;;;;;;;;;;;;18.73;56.89;101503.72;4148141;28;19940;-56
2023/08/08 01:00:35;;;;;;;;;;;;;;;18.73;57.07;101502.88;4147438;28;19956;-60
2023/08/08 01:02:36;;;;;;;;;;;;;;;18.73;56.92;101508.22;4148001;28;20382;-56
2023/08/08 01:04:39;;;;;;;;;;;;;;;18.73;56.92;101511.72;4147937;28;19925;-57
2023/08/08 01:06:51;;;;;;;;;;;;;;;18.72;57.05;101502.00;4148247;28;19925;-57
2023/08/08 01:08:57;;;;;;;;;;;;;;;18.71;57.09;101502.94;4148134;28;19944;-57
2023/08/08 01:10:59;;;;;;;;;;;;;;;18.71;56.64;101505.59;4147384;28;19932;-57
2023/08/08 01:13:04;;;;;;;;;;;;;;;18.72;56.77;101501.16;4148208;28;19925;-57
2023/08/08 01:15:06;;;;;;;;;;;;;;;18.71;57.18;101505.59;4148322;28;20335;-56
2023/08/08 01:17:08;;;;;;;;;;;;;;;18.71;57.18;101502.94;4147784;28;20029;-57
2023/08/08 01:19:13;;;;;;;;;;;;;;;18.71;56.98;101507.44;4147961;28;19957;-57
2023/08/08 01:21:15;;;;;;;;;;;;;;;18.70;57.07;101505.69;4147362;28;19932;-57
2023/08/08 01:23:17;;;;;;;;;;;;;;;18.71;57.05;101510.09;4148015;28;19926;-57
2023/08/08 01:25:19;;;;;;;;;;;;;;;18.70;57.15;101506.59;4147884;28;19926;-57
2023/08/08 01:27:21;;;;;;;;;;;;;;;18.70;57.34;101508.38;4147936;28;19961;-57
2023/08/08 01:29:23;;;;;;;;;;;;;;;18.69;57.01;101507.53;4146601;28;19925;-57
2023/08/08 01:31:24;;;;;;;;;;;;;;;18.69;57.31;101504.84;4146822;28;19932;-57
2023/08/08 01:33:26;;;;;;;;;;;;;;;18.69;57.40;101504.84;4148064;28;19980;-57
2023/08/08 01:35:30;;;;;;;;;;;;;;;18.69;57.30;101504.84;4146816;28;19925;-57
2023/08/08 01:37:52;;;;;;;;;;;;;;;18.68;57.18;101503.97;4146910;28;19987;-57
2023/08/08 01:39:54;;;;;;;;;;;;;;;18.68;57.06;101503.97;4147480;28;20387;-57
2023/08/08 01:41:58;;;;;;;;;;;;;;;18.69;57.19;101502.19;4147852;28;19933;-57
2023/08/08 01:44:02;;;;;;;;;;;;;;;18.69;57.16;101504.84;4150902;28;20411;-57
2023/08/08 01:46:04;;;;;;;;;;;;;;;18.67;57.20;101499.59;4150888;28;19926;-57
2023/08/08 01:48:07;;;;;;;;;;;;;;;18.70;57.46;101505.69;4151350;28;20064;-57
2023/08/08 01:50:09;;;;;;;;;;;;;;;18.68;57.40;101509.31;4150319;28;19935;-57
2023/08/08 01:52:10;;;;;;;;;;;;;;;18.69;57.30;101510.19;4149683;28;20398;-57
2023/08/08 01:54:12;;;;;;;;;;;;;;;18.68;57.60;101511.13;4151167;28;19925;-57
2023/08/08 01:56:13;;;;;;;;;;;;;;;18.68;57.33;101511.97;4151383;28;19969;-57
2023/08/08 01:58:15;;;;;;;;;;;;;;;18.67;57.28;101502.25;4151120;28;19931;-57
2023/08/08 02:00:17;;;;;;;;;;;;;;;18.67;57.55;101506.75;4150142;28;19933;-57
2023/08/08 02:02:19;;;;;;;;;;;;;;;18.67;57.31;101510.25;4150900;28;19925;-57
2023/08/08 02:04:21;;;;;;;;;;;;;;;18.67;57.37;101509.41;4149569;28;19952;-57
2023/08/08 02:06:22;;;;;;;;;;;;;;;18.67;57.49;101501.41;4150691;28;19932;-57
2023/08/08 02:08:24;;;;;;;;;;;;;;;18.67;57.52;101506.75;4150893;28;19953;-58
2023/08/08 02:10:25;;;;;;;;;;;;;;;18.66;57.33;101497.03;4149997;28;19936;-56
2023/08/08 02:12:28;;;;;;;;;;;;;;;18.66;57.49;101486.38;4151105;28;20418;-57
2023/08/08 02:14:30;;;;;;;;;;;;;;;18.65;57.40;101481.97;4150059;28;19929;-57
2023/08/08 02:16:32;;;;;;;;;;;;;;;18.65;57.36;101472.19;4150593;28;19933;-57
2023/08/08 02:18:33;;;;;;;;;;;;;;;18.66;57.44;101478.38;4150696;28;20409;-59
2023/08/08 02:20:35;;;;;;;;;;;;;;;18.65;57.29;101481.97;4148680;28;19960;-57
2023/08/08 02:22:36;;;;;;;;;;;;;;;18.65;57.32;101480.19;4149175;28;19932;-57
2023/08/08 02:24:38;;;;;;;;;;;;;;;18.65;57.35;101481.97;4150525;28;19926;-57
2023/08/08 02:26:39;;;;;;;;;;;;;;;18.64;57.34;101483.81;4150533;28;20378;-57
2023/08/08 02:28:41;;;;;;;;;;;;;;;18.65;57.54;101477.53;4149019;28;19929;-57
2023/08/08 02:30:43;;;;;;;;;;;;;;;18.64;57.68;101477.59;4149716;28;20018;-57
2023/08/08 02:32:44;;;;;;;;;;;;;;;18.65;57.42;101484.66;4150232;28;19926;-57
2023/08/08 02:34:46;;;;;;;;;;;;;;;18.64;57.65;101465.16;4150200;28;19925;-57
2023/08/08 02:36:48;;;;;;;;;;;;;;;18.63;57.21;101468.75;4150233;28;20379;-57
2023/08/08 02:38:53;;;;;;;;;;;;;;;18.63;57.65;101458.09;4150532;28;19930;-59
2023/08/08 02:40:54;;;;;;;;;;;;;;;18.63;57.47;101454.59;4149582;28;19980;-56
2023/08/08 02:42:56;;;;;;;;;;;;;;;18.63;57.41;101466.09;4149971;28;19957;-57
2023/08/08 02:44:58;;;;;;;;;;;;;;;18.62;57.33;101469.69;4150283;28;19925;-57
2023/08/08 02:46:59;;;;;;;;;;;;;;;18.62;57.52;101461.72;4150197;28;19957;-57
2023/08/08 02:49:01;;;;;;;;;;;;;;;18.62;57.15;101472.38;4149998;28;19929;-57
2023/08/08 02:51:02;;;;;;;;;;;;;;;18.61;57.43;101470.63;4149536;28;20005;-57
2023/08/08 02:53:04;;;;;;;;;;;;;;;18.62;57.22;101477.69;4150137;28;19926;-57
2023/08/08 02:55:06;;;;;;;;;;;;;;;18.61;57.32;101473.31;4148172;28;19964;-57
2023/08/08 02:57:10;;;;;;;;;;;;;;;18.62;57.24;101476.84;4149804;28;19926;-57
2023/08/08 02:59:12;;;;;;;;;;;;;;;18.62;57.61;101468.84;4150041;28;20765;-57
2023/08/08 03:01:14;;;;;;;;;;;;;;;18.62;57.40;101476.84;4149256;28;19926;-57
2023/08/08 03:03:16;;;;;;;;;;;;;;;18.61;57.55;101480.44;4149855;28;19925;-57
2023/08/08 03:05:18;;;;;;;;;;;;;;;18.61;57.46;101481.31;4149598;28;19926;-57
2023/08/08 03:07:19;;;;;;;;;;;;;;;18.61;57.50;101489.28;4149754;28;19964;-57
2023/08/08 03:09:21;;;;;;;;;;;;;;;18.61;57.65;101485.78;4149883;28;19925;-58
2023/08/08 03:11:22;;;;;;;;;;;;;;;18.60;57.30;101490.22;4148913;28;19933;-57
2023/08/08 03:13:24;;;;;;;;;;;;;;;18.61;57.34;101491.09;4149551;28;19926;-57
2023/08/08 03:15:25;;;;;;;;;;;;;;;18.60;57.43;101478.72;4149369;28;19925;-57
2023/08/08 03:17:27;;;;;;;;;;;;;;;18.59;57.56;101477.88;4149779;28;19948;-57
2023/08/08 03:19:28;;;;;;;;;;;;;;;18.60;57.57;101478.72;4149669;28;20015;-57
2023/08/08 03:21:30;;;;;;;;;;;;;;;18.59;57.43;101480.56;4148940;28;20314;-56
2023/08/08 03:23:32;;;;;;;;;;;;;;;18.54;57.73;101476.41;4149629;28;19961;-55
2023/08/08 03:25:33;;;;;;;;;;;;;;;18.60;57.71;101482.25;4149525;28;19953;-56
2023/08/08 03:27:35;;;;;;;;;;;;;;;18.59;57.78;101477.88;4149403;28;19929;-57
2023/08/08 03:29:36;;;;;;;;;;;;;;;18.58;57.76;101481.50;4149643;28;20306;-55
2023/08/08 03:31:38;;;;;;;;;;;;;;;18.58;57.97;101467.28;4148858;28;20303;-55
2023/08/08 03:33:41;;;;;;;;;;;;;;;18.58;57.75;101468.16;4149585;28;20318;-57
2023/08/08 03:35:43;;;;;;;;;;;;;;;18.58;57.64;101473.50;4149206;28;19979;-61
2023/08/08 03:37:45;;;;;;;;;;;;;;;18.57;57.86;101474.44;4149429;28;19930;-57
2023/08/08 03:39:46;;;;;;;;;;;;;;;18.58;57.93;101480.63;4149412;28;19925;-56
2023/08/08 03:41:48;;;;;;;;;;;;;;;18.58;57.73;101488.59;4148017;28;19933;-57
2023/08/08 03:43:50;;;;;;;;;;;;;;;18.58;57.76;101488.59;4149273;28;20410;-59
2023/08/08 03:45:51;;;;;;;;;;;;;;;18.58;57.77;101491.28;4149274;28;20012;-56
2023/08/08 03:47:53;;;;;;;;;;;;;;;18.58;57.82;101488.59;4149310;28;19960;-57
2023/08/08 03:49:57;;;;;;;;;;;;;;;18.57;57.63;101484.25;4149182;28;19926;-57
2023/08/08 03:51:58;;;;;;;;;;;;;;;18.58;57.94;101494.81;4148622;28;20020;-57
2023/08/08 03:54:00;;;;;;;;;;;;;;;18.56;57.87;101491.38;4148801;28;20006;-57
2023/08/08 03:56:02;;;;;;;;;;;;;;;18.58;57.96;101491.28;4148617;28;19935;-57
2023/08/08 03:58:03;;;;;;;;;;;;;;;18.57;58.05;101495.75;4149180;28;19930;-57
2023/08/08 04:00:08;;;;;;;;;;;;;;;18.57;57.96;101489.59;4148967;28;19933;-57
2023/08/08 04:02:09;;;;;;;;;;;;;;;18.55;58.01;101492.31;4148973;28;19988;-57
2023/08/08 04:04:11;;;;;;;;;;;;;;;18.56;58.08;101495.84;4148849;28;19958;-56
2023/08/08 04:06:12;;;;;;;;;;;;;;;18.55;58.12;101494.97;4146750;28;20044;-56
2023/08/08 04:08:14;;;;;;;;;;;;;;;18.56;57.97;101494.03;4148822;28;19961;-57
2023/08/08 04:10:16;;;;;;;;;;;;;;;18.55;57.99;101496.78;4147030;28;19961;-57
2023/08/08 04:12:18;;;;;;;;;;;;;;;18.55;57.84;101489.66;4148919;28;19925;-57
2023/08/08 04:14:19;;;;;;;;;;;;;;;18.51;57.80;101482.78;4148722;28;20083;-57
2023/08/08 04:16:21;;;;;;;;;;;;;;;18.55;57.71;101494.97;4148681;28;19925;-59
2023/08/08 04:18:26;;;;;;;;;;;;;;;18.55;58.15;101489.66;4148871;28;19925;-58
2023/08/08 04:20:27;;;;;;;;;;;;;;;18.55;57.61;101491.47;4148121;28;19925;-57
2023/08/08 04:22:29;;;;;;;;;;;;;;;18.54;57.91;101490.59;4148671;28;20017;-57
2023/08/08 04:24:30;;;;;;;;;;;;;;;18.54;58.04;101490.59;4148344;28;20311;-57
2023/08/08 04:26:32;;;;;;;;;;;;;;;18.54;58.07;101493.25;4148761;28;19933;-58
2023/08/08 04:28:33;;;;;;;;;;;;;;;18.54;58.15;101490.59;4148586;28;19926;-57
2023/08/08 04:30:35;;;;;;;;;;;;;;;18.54;58.01;101489.75;4148316;28;19991;-57
2023/08/08 04:32:37;;;;;;;;;;;;;;;18.54;58.07;101492.41;4148639;28;19972;-57
2023/08/08 04:34:38;;;;;;;;;;;;;;;18.54;58.19;101489.75;4147333;28;19925;-57
2023/08/08 04:36:40;;;;;;;;;;;;;;;18.54;57.99;101495.06;4148771;28;19931;-57
2023/08/08 04:38:42;;;;;;;;;;;;;;;18.54;57.95;101495.06;4148259;28;20016;-57
2023/08/08 04:40:43;;;;;;;;;;;;;;;18.52;57.95;101490.69;4147776;28;20307;-57
2023/08/08 04:42:45;;;;;;;;;;;;;;;18.53;58.02;101488.91;4148343;28;19929;-57
2023/08/08 04:44:47;;;;;;;;;;;;;;;18.52;57.84;101496.00;4148303;28;20379;-56
2023/08/08 04:46:48;;;;;;;;;;;;;;;18.53;57.99;101502.22;4148330;28;19975;-57
2023/08/08 04:48:50;;;;;;;;;;;;;;;18.53;58.06;101494.22;4148191;28;19929;-57
2023/08/08 04:50:51;;;;;;;;;;;;;;;18.52;58.37;101498.66;4147867;28;20322;-57
2023/08/08 04:52:53;;;;;;;;;;;;;;;18.51;58.29;101494.28;4148201;28;20024;-57
2023/08/08 04:54:54;;;;;;;;;;;;;;;18.52;58.28;101492.50;4148057;28;20363;-57
2023/08/08 04:56:56;;;;;;;;;;;;;;;18.52;58.03;101484.50;4148237;28;19925;-57
2023/08/08 04:58:57;;;;;;;;;;;;;;;18.52;58.04;101487.19;4148257;28;19925;-57
2023/08/08 05:00:59;;;;;;;;;;;;;;;18.52;58.04;101479.19;4147889;28;19992;-57
2023/08/08 05:03:01;;;;;;;;;;;;;;;18.52;58.25;101481.84;4148229;28;20024;-57
2023/08/08 05:05:03;;;;;;;;;;;;;;;18.51;57.98;101480.97;4148003;28;19956;-56
2023/08/08 05:07:06;;;;;;;;;;;;;;;18.52;58.26;101477.38;4148454;28;19925;-57
2023/08/08 05:09:09;;;;;;;;;;;;;;;18.52;58.33;101480.03;4148162;28;19932;-57
2023/08/08 05:11:10;;;;;;;;;;;;;;;18.52;57.92;101482.69;4147251;28;20016;-57
2023/08/08 05:13:12;;;;;;;;;;;;;;;18.53;58.15;101483.56;4148141;28;20288;-57
2023/08/08 05:15:14;;;;;;;;;;;;;;;18.53;57.87;101488.91;4148027;28;19925;-57
2023/08/08 05:17:15;;;;;;;;;;;;;;;18.53;57.96;101475.56;4147624;28;19926;-56
2023/08/08 05:19:17;;;;;;;;;;;;;;;18.53;57.90;101472.91;4148438;28;19926;-57
2023/08/08 05:21:19;;;;;;;;;;;;;;;18.54;58.04;101476.41;4147232;28;19979;-57
2023/08/08 05:23:20;;;;;;;;;;;;;;;18.53;57.76;101480.91;4147822;28;20422;-59
2023/08/08 05:25:22;;;;;;;;;;;;;;;18.55;57.66;101472.81;4147977;28;20405;-57
2023/08/08 05:27:29;;;;;;;;;;;;;;;18.54;58.00;101474.59;4148084;28;19925;-57
2023/08/08 05:29:30;;;;;;;;;;;;;;;18.54;57.75;101481.75;4148095;28;19972;-57
2023/08/08 05:31:32;;;;;;;;;;;;;;;18.54;58.15;101477.25;4147346;28;20383;-57
2023/08/08 05:33:33;;;;;;;;;;;;;;;18.54;57.99;101479.94;4148038;28;20398;-57
2023/08/08 05:35:35;;;;;;;;;;;;;;;18.55;58.09;101484.31;4147753;28;19932;-57
2023/08/08 05:37:36;;;;;;;;;;;;;;;18.54;57.82;101485.25;4147670;28;19925;-57
2023/08/08 05:39:44;;;;;;;;;;;;;;;18.54;58.19;101485.25;4146948;28;19933;-54
2023/08/08 05:41:45;;;;;;;;;;;;;;;18.56;58.33;101479.88;4147319;28;19934;-57
2023/08/08 05:43:47;;;;;;;;;;;;;;;18.54;58.74;101485.25;4147898;28;20410;-57
2023/08/08 05:45:48;;;;;;;;;;;;;;;18.55;58.61;101483.47;4147913;28;20405;-57
2023/08/08 05:47:50;;;;;;;;;;;;;;;18.56;58.61;101495.84;4147891;28;20386;-57
2023/08/08 05:49:52;;;;;;;;;;;;;;;18.55;58.68;101486.97;4147895;28;20422;-57
2023/08/08 05:51:53;;;;;;;;;;;;;;;18.56;58.66;101490.53;4145495;28;20387;-56
2023/08/08 05:53:55;;;;;;;;;;;;;;;18.56;58.66;101490.53;4147911;28;19987;-57
2023/08/08 05:55:56;;;;;;;;;;;;;;;18.58;58.66;101501.94;4147842;28;19929;-57
2023/08/08 05:57:58;;;;;;;;;;;;;;;18.58;58.69;101499.25;4147908;28;19925;-57
2023/08/08 06:00:00;;;;;;;;;;;;;;;18.58;58.50;101499.25;4147665;28;19933;-57
2023/08/08 06:02:06;;;;;;;;;;;;;;;18.59;58.45;101501.88;4146969;28;19932;-57
2023/08/08 06:04:13;;;;;;;;;;;;;;;18.59;58.23;101501.88;4147926;28;19952;-58
2023/08/08 06:06:15;;;;;;;;;;;;;;;18.60;58.63;101500.03;4147467;28;19980;-57
2023/08/08 06:08:17;;;;;;;;;;;;;;;18.61;58.57;101501.78;4147609;28;20415;-57
2023/08/08 06:10:18;;;;;;;;;;;;;;;18.60;58.57;101500.88;4147590;28;19979;-58
2023/08/08 06:12:20;;;;;;;;;;;;;;;18.60;58.50;101511.53;4147124;28;19925;-57
2023/08/08 06:14:22;;;;;;;;;;;;;;;18.60;58.51;101500.03;4147550;28;19926;-57
2023/08/08 06:16:24;;;;;;;;;;;;;;;18.62;58.54;101506.16;4147509;28;20355;-57
2023/08/08 06:18:26;;;;;;;;;;;;;;;18.61;58.37;101499.94;4147655;28;19925;-57
2023/08/08 06:20:28;;;;;;;;;;;;;;;18.61;58.46;101507.09;4147376;28;20012;-57
2023/08/08 06:22:30;;;;;;;;;;;;;;;18.61;58.53;101510.59;4146882;28;20037;-58
2023/08/08 06:24:32;;;;;;;;;;;;;;;18.62;58.46;101516.81;4147442;28;20418;-57
2023/08/08 06:26:33;;;;;;;;;;;;;;;18.63;58.16;101522.03;4147479;28;19930;-56
2023/08/08 06:28:35;;;;;;;;;;;;;;;18.64;58.36;101517.56;4147574;28;19948;-57
2023/08/08 06:30:37;;;;;;;;;;;;;;;18.64;58.35;101514.91;4149555;28;19932;-58
2023/08/08 06:32:38;;;;;;;;;;;;;;;18.65;58.37;101527.28;4148601;28;20012;-56
2023/08/08 06:34:40;;;;;;;;;;;;;;;18.65;57.98;101519.28;4150273;28;19926;-56
2023/08/08 06:36:42;;;;;;;;;;;;;;;18.64;57.91;101515.78;4150470;28;20464;-56
2023/08/08 06:38:44;;;;;;;;;;;;;;;18.64;58.35;101523.75;4150483;28;19936;-56
2023/08/08 06:40:45;;;;;;;;;;;;;;;18.64;58.15;101523.75;4150359;28;20118;-56
2023/08/08 06:42:49;;;;;;;;;;;;;;;18.64;58.24;101523.75;4150171;28;19980;-56
2023/08/08 06:44:51;;;;;;;;;;;;;;;18.64;58.25;101521.09;4150235;28;20020;-56
2023/08/08 06:46:52;;;;;;;;;;;;;;;18.64;58.06;101509.56;4150262;28;19926;-57
2023/08/08 06:48:56;;;;;;;;;;;;;;;18.64;58.29;101510.44;4150200;28;19929;-55
2023/08/08 06:50:58;;;;;;;;;;;;;;;18.64;58.11;101515.78;4149312;28;19932;-57
2023/08/08 06:53:00;;;;;;;;;;;;;;;18.64;58.28;101517.56;4150333;28;19948;-57
2023/08/08 06:55:01;;;;;;;;;;;;;;;18.58;58.40;101510.78;4150103;28;19926;-57
2023/08/08 06:57:04;;;;;;;;;;;;;;;18.65;58.36;101517.50;4150135;28;19929;-57
2023/08/08 06:59:05;;;;;;;;;;;;;;;18.66;58.26;101511.22;4150210;28;19926;-57
2023/08/08 07:01:07;;;;;;;;;;;;;;;18.65;57.91;101509.50;4149654;28;20016;-57
2023/08/08 07:03:08;;;;;;;;;;;;;;;18.65;58.21;101506.84;4150017;28;19926;-57
2023/08/08 07:05:10;;;;;;;;;;;;;;;18.65;58.27;101506.84;4149438;28;19925;-57
2023/08/08 07:07:11;;;;;;;;;;;;;;;18.64;58.07;101510.44;4150109;28;19937;-57
2023/08/08 07:09:14;;;;;;;;;;;;;;;18.65;57.96;101508.63;4149904;28;19975;-57
2023/08/08 07:11:16;;;;;;;;;;;;;;;18.66;58.22;101519.22;4149072;28;20321;-57
2023/08/08 07:13:17;;;;;;;;;;;;;;;18.67;57.91;101518.25;4149870;28;19971;-56
2023/08/08 07:15:19;;;;;;;;;;;;;;;18.67;58.07;101510.25;4149630;28;19995;-57
2023/08/08 07:17:21;;;;;;;;;;;;;;;18.69;58.11;101504.84;4148663;28;19926;-57
2023/08/08 07:19:22;;;;;;;;;;;;;;;18.68;57.94;101503.97;4149407;28;19926;-57
2023/08/08 07:21:24;;;;;;;;;;;;;;;18.69;58.03;101504.84;4148048;28;20016;-56
2023/08/08 07:23:26;;;;;;;;;;;;;;;18.67;57.95;101504.06;4148394;28;19925;-55
2023/08/08 07:25:27;;;;;;;;;;;;;;;18.68;57.95;101506.66;4149746;28;19926;-56
2023/08/08 07:27:29;;;;;;;;;;;;;;;18.69;57.82;101504.84;4149903;28;19926;-57
2023/08/08 07:29:30;;;;;;;;;;;;;;;18.69;57.84;101502.19;4149769;28;19964;-57
2023/08/08 07:31:32;;;;;;;;;;;;;;;18.69;58.01;101491.53;4148827;28;20020;-57
2023/08/08 07:33:34;;;;;;;;;;;;;;;18.70;57.88;101495.03;4149123;28;19964;-57
2023/08/08 07:35:35;;;;;;;;;;;;;;;18.70;57.64;101489.72;4149510;28;19925;-58
2023/08/08 07:37:37;;;;;;;;;;;;;;;18.70;57.94;101495.03;4149456;28;19952;-57
2023/08/08 07:39:38;;;;;;;;;;;;;;;18.72;57.94;101495.81;4149241;28;19925;-57
2023/08/08 07:41:40;;;;;;;;;;;;;;;18.74;57.71;101504.59;4148272;28;19931;-57
2023/08/08 07:43:41;;;;;;;;;;;;;;;18.75;57.73;101490.31;4149201;28;20354;-58
2023/08/08 07:45:43;;;;;;;;;;;;;;;18.76;57.65;101494.69;4148185;28;19948;-58
2023/08/08 07:47:45;;;;;;;;;;;;;;;18.76;57.61;101495.56;4149007;28;19991;-57
2023/08/08 07:49:46;;;;;;;;;;;;;;;18.77;57.64;101493.75;4147922;28;20431;-59
2023/08/08 07:51:48;;;;;;;;;;;;;;;18.79;57.48;101502.53;4148851;28;19925;-58
2023/08/08 07:53:49;;;;;;;;;;;;;;;18.82;57.37;101503.19;4149006;28;19932;-57
2023/08/08 07:55:51;;;;;;;;;;;;;;;18.81;57.25;101490.81;4148052;28;19931;-58
2023/08/08 07:57:52;;;;;;;;;;;;;;;18.83;57.03;101488.94;4148869;28;19933;-57
2023/08/08 07:59:54;;;;;;;;;;;;;;;18.84;56.91;101493.28;4148959;28;20391;-58
2023/08/08 08:01:56;;;;;;;;;;;;;;;18.86;57.11;101485.22;4147981;28;19925;-58
2023/08/08 08:03:57;;;;;;;;;;;;;;;18.88;57.04;101479.78;4149109;28;19926;-57
2023/08/08 08:05:59;;;;;;;;;;;;;;;18.90;57.17;101480.56;4148790;28;19925;-57
2023/08/08 08:08:00;;;;;;;;;;;;;;;18.91;57.06;101476.97;4148946;28;19926;-58
2023/08/08 08:10:02;;;;;;;;;;;;;;;18.91;56.91;101480.50;4148800;28;19929;-57
2023/08/08 08:12:04;;;;;;;;;;;;;;;18.90;56.87;101486.75;4148102;28;19933;-57
2023/08/08 08:14:06;;;;;;;;;;;;;;;18.89;57.00;101481.53;4148604;28;19926;-58
2023/08/08 08:16:08;;;;;;;;;;;;;;;18.89;57.04;101487.69;4148339;28;19929;-58
2023/08/08 08:18:12;;;;;;;;;;;;;;;18.90;57.08;101485.91;4148915;28;20299;-58
2023/08/08 08:20:14;;;;;;;;;;;;;;;18.91;57.04;101477.84;4148675;28;19929;-57
2023/08/08 08:22:16;;;;;;;;;;;;;;;18.93;56.90;101473.28;4148028;28;20008;-58
2023/08/08 08:24:17;;;;;;;;;;;;;;;18.93;56.86;101477.75;4148728;28;19925;-57
2023/08/08 08:26:19;;;;;;;;;;;;;;;18.94;56.77;101475.00;4148554;28;19926;-56
2023/08/08 08:28:21;;;;;;;;;;;;;;;18.95;56.48;101470.53;4148531;28;20148;-57
2023/08/08 08:30:25;;;;;;;;;;;;;;;18.97;56.55;101471.31;4148641;28;19948;-54
2023/08/08 08:32:26;;;;;;;;;;;;;;;18.98;56.85;101473.03;4147891;28;20366;-57
2023/08/08 08:34:28;;;;;;;;;;;;;;;18.99;56.70;101474.72;4148552;28;20291;-58
2023/08/08 08:36:29;;;;;;;;;;;;;;;19.00;56.37;101471.09;4148353;28;19925;-57
2023/08/08 08:38:31;;;;;;;;;;;;;;;19.01;56.64;101470.16;4148459;28;20353;-58
2023/08/08 08:40:37;;;;;;;;;;;;;;;19.02;56.77;101474.53;4148478;28;19980;-58
2023/08/08 08:42:39;;;;;;;;;;;;;;;19.04;56.66;101478.00;4146344;28;19929;-58
2023/08/08 08:44:42;;;;;;;;;;;;;;;19.05;56.15;101477.00;4148390;28;19926;-58
2023/08/08 08:46:46;;;;;;;;;;;;;;;19.04;56.44;101480.66;4148091;28;19926;-58
2023/08/08 08:48:51;;;;;;;;;;;;;;;19.03;56.61;101483.41;4148409;28;19925;-58
2023/08/08 08:50:52;;;;;;;;;;;;;;;19.02;56.69;101482.53;4148432;28;19948;-58
2023/08/08 08:52:55;;;;;;;;;;;;;;;19.03;56.45;101491.38;4147030;28;19940;-58
2023/08/08 08:54:57;;;;;;;;;;;;;;;19.04;56.68;101491.31;4148366;28;19933;-57
2023/08/08 08:56:58;;;;;;;;;;;;;;;19.07;56.65;101476.94;4148423;28;19925;-58
2023/08/08 08:59:00;;;;;;;;;;;;;;;19.08;56.48;101478.66;4148305;28;19932;-58
2023/08/08 09:01:02;;;;;;;;;;;;;;;19.09;56.23;101475.91;4147931;28;19931;-58
2023/08/08 09:03:04;;;;;;;;;;;;;;;19.11;56.32;101478.47;4147491;28;20393;-57
2023/08/08 09:05:07;;;;;;;;;;;;;;;19.12;56.21;101477.53;4148328;28;20346;-58
2023/08/08 09:07:09;;;;;;;;;;;;;;;19.13;56.20;101477.41;4147966;28;19972;-57
2023/08/08 09:09:11;;;;;;;;;;;;;;;19.14;56.08;101471.16;4146720;28;19932;-57
2023/08/08 09:11:17;;;;;;;;;;;;;;;19.09;55.43;101459.03;4147631;28;19926;-58
2023/08/08 09:13:20;;;;;;;;;;;;;;;19.16;56.11;101476.38;4147726;28;19932;-58
2023/08/08 09:15:21;;;;;;;;;;;;;;;19.15;55.99;101474.69;4147565;28;19964;-58
2023/08/08 09:17:27;;;;;;;;;;;;;;;19.16;55.95;101476.38;4147994;28;20417;-58
2023/08/08 09:19:46;;;;;;;;;;;;;;;19.13;55.62;101473.91;4146953;28;19925;-57
2023/08/08 09:21:49;;;;;;;;;;;;;;;19.16;55.91;101465.72;4147488;28;19926;-58
2023/08/08 09:23:50;;;;;;;;;;;;;;;19.18;55.57;101478.97;4147950;28;20379;-57
2023/08/08 09:25:52;;;;;;;;;;;;;;;19.21;55.87;101474.31;4148031;28;19938;-57
2023/08/08 09:27:54;;;;;;;;;;;;;;;19.22;55.95;101470.66;4148149;28;20016;-57
2023/08/08 09:29:55;;;;;;;;;;;;;;;19.23;55.71;101471.56;4147485;28;19925;-57
2023/08/08 09:31:56;;;;;;;;;;;;;;;19.23;56.06;101469.72;4147104;28;19932;-57
2023/08/08 09:34:00;;;;;;;;;;;;;;;19.21;55.70;101463.66;4147809;28;20016;-58
2023/08/08 09:36:02;;;;;;;;;;;;;;;19.20;55.80;101464.59;4147912;28;19996;-57
2023/08/08 09:38:04;;;;;;;;;;;;;;;19.19;55.96;101460.22;4147676;28;19925;-58
2023/08/08 09:40:07;;;;;;;;;;;;;;;19.22;55.63;101456.50;4147857;28;19926;-57
2023/08/08 09:42:11;;;;;;;;;;;;;;;19.23;55.64;101453.72;4147425;28;19939;-57
2023/08/08 09:44:13;;;;;;;;;;;;;;;19.24;55.47;101452.78;4147464;28;19925;-58
2023/08/08 09:46:15;;;;;;;;;;;;;;;19.25;55.44;101443.84;4146369;28;20012;-57
2023/08/08 09:48:18;;;;;;;;;;;;;;;19.26;55.35;101432.22;4147653;28;19925;-58
2023/08/08 09:50:20;;;;;;;;;;;;;;;19.27;55.30;101441.94;4147976;28;20359;-57
2023/08/08 09:52:22;;;;;;;;;;;;;;;19.27;55.34;101438.41;4147097;28;19953;-57
2023/08/08 09:54:24;;;;;;;;;;;;;;;19.27;55.44;101431.28;4147713;28;20298;-57
2023/08/08 09:56:25;;;;;;;;;;;;;;;19.28;55.44;101433.00;4147842;28;19971;-56
2023/08/08 09:58:27;;;;;;;;;;;;;;;19.29;55.50;101434.69;4147963;28;19929;-58
2023/08/08 10:00:30;;;;;;;;;;;;;;;19.31;55.10;101435.47;4147757;28;19925;-57
2023/08/08 10:02:33;;;;;;;;;;;;;;;19.32;55.10;101431.00;4147080;28;19929;-58
2023/08/08 10:04:34;;;;;;;;;;;;;;;19.33;55.03;101429.19;4148312;28;19930;-57
2023/08/08 10:06:36;;;;;;;;;;;;;;;19.35;55.06;101424.63;4150767;28;20449;-58
2023/08/08 10:08:37;;;;;;;;;;;;;;;19.36;54.95;101426.34;4150961;28;19984;-57
2023/08/08 10:10:39;;;;;;;;;;;;;;;19.35;55.11;101420.13;4150600;28;19961;-58
2023/08/08 10:12:42;;;;;;;;;;;;;;;19.34;54.76;101429.06;4149669;28;19925;-58
2023/08/08 10:14:44;;;;;;;;;;;;;;;19.35;55.00;101430.78;4150769;28;20347;-58
2023/08/08 10:16:47;;;;;;;;;;;;;;;19.35;55.05;101424.63;4150501;28;19930;-58
2023/08/08 10:18:59;;;;;;;;;;;;;;;19.37;55.14;101422.69;4150666;28;19925;-56
2023/08/08 10:21:03;;;;;;;;;;;;;;;19.38;54.74;101416.41;4150509;28;19925;-57
2023/08/08 10:23:07;;;;;;;;;;;;;;;19.40;54.98;101419.84;4149801;28;19940;-57
2023/08/08 10:25:17;;;;;;;;;;;;;;;19.42;54.83;101417.94;4150510;28;20379;-58
2023/08/08 10:27:27;;;;;;;;;;;;;;;19.44;54.87;101416.03;4150128;28;20297;-58